Time;durP1;ratioP1;P1;durP2;ratioP2;P2;SDS_P1;SDS_P2;PMS_P1;PMS_P2;Temp;Humidity;BMP_temperature;BMP_pressure;BME280_temperature;BME280_humidity;BME280_pressure;Samples;Min_cycle;Max_cycle;Signal;HPM_P1;HPM_P2
2022/03/13 00:01:21;;;;;;;14.15;12.10;;;;;;;;;;4935198;28;92453;-76
2022/03/13 00:03:48;;;;;;;16.85;12.43;;;;;;;;;;4934801;28;94604;-77
2022/03/13 00:06:21;;;;;;;14.13;12.10;;;;;;;;;;4935593;28;92767;-75
2022/03/13 00:08:49;;;;;;;18.23;12.15;;;;;;;;;;4934767;28;92286;-76
2022/03/13 00:11:18;;;;;;;16.52;12.10;;;;;;;;;;4937772;28;93560;-75
2022/03/13 00:13:48;;;;;;;16.65;11.85;;;;;;;;;;4932876;28;94814;-77
2022/03/13 00:16:17;;;;;;;15.25;12.15;;;;;;;;;;4935131;28;95924;-77
2022/03/13 00:18:46;;;;;;;13.02;11.75;;;;;;;;;;4934890;28;93692;-75
2022/03/13 00:21:14;;;;;;;16.55;11.93;;;;;;;;;;4934632;28;93495;-76
2022/03/13 00:23:41;;;;;;;13.13;11.82;;;;;;;;;;4934791;28;93648;-76
2022/03/13 00:26:08;;;;;;;16.58;11.90;;;;;;;;;;4936347;28;93639;-76
2022/03/13 00:28:36;;;;;;;14.23;12.18;;;;;;;;;;4936839;28;92246;-75
2022/03/13 00:31:03;;;;;;;17.70;12.48;;;;;;;;;;4940111;28;93664;-76
2022/03/13 00:33:30;;;;;;;15.45;11.55;;;;;;;;;;4936676;28;92360;-76
2022/03/13 00:35:56;;;;;;;16.52;11.52;;;;;;;;;;4936770;28;93509;-77
2022/03/13 00:38:25;;;;;;;14.02;11.40;;;;;;;;;;4938389;28;96311;-76
2022/03/13 00:40:52;;;;;;;13.10;11.50;;;;;;;;;;4936822;28;92525;-76
2022/03/13 00:43:19;;;;;;;15.57;10.85;;;;;;;;;;4936445;28;93503;-77
2022/03/13 00:45:46;;;;;;;12.25;10.93;;;;;;;;;;4936486;28;93989;-74
2022/03/13 00:48:12;;;;;;;12.30;10.77;;;;;;;;;;4936297;28;92334;-77
2022/03/13 00:50:39;;;;;;;15.73;10.88;;;;;;;;;;4936517;28;93761;-75
2022/03/13 00:53:05;;;;;;;14.48;11.20;;;;;;;;;;4938998;28;93700;-75
2022/03/13 00:55:32;;;;;;;11.13;10.00;;;;;;;;;;4939052;28;93863;-75
2022/03/13 00:57:59;;;;;;;11.43;9.55;;;;;;;;;;4939885;28;92695;-75
2022/03/13 01:00:26;;;;;;;11.55;9.23;;;;;;;;;;4939449;28;92353;-75
2022/03/13 01:02:52;;;;;;;14.55;9.32;;;;;;;;;;4939090;28;94662;-77
2022/03/13 01:05:21;;;;;;;9.48;8.43;;;;;;;;;;4940026;28;94595;-75
2022/03/13 01:07:47;;;;;;;13.55;9.70;;;;;;;;;;4940018;28;92267;-75
2022/03/13 01:10:13;;;;;;;11.32;9.35;;;;;;;;;;4940491;28;93310;-75
2022/03/13 01:12:40;;;;;;;9.77;8.77;;;;;;;;;;4940209;28;93514;-75
2022/03/13 01:15:07;;;;;;;11.45;8.75;;;;;;;;;;4943419;28;92231;-76
2022/03/13 01:17:34;;;;;;;9.15;8.23;;;;;;;;;;4940065;28;93627;-75
2022/03/13 01:20:02;;;;;;;11.23;8.27;;;;;;;;;;4939991;28;91902;-75
2022/03/13 01:22:28;;;;;;;10.05;7.53;;;;;;;;;;4940069;28;92820;-75
2022/03/13 01:24:55;;;;;;;10.98;8.60;;;;;;;;;;4939997;28;93702;-76
2022/03/13 01:27:21;;;;;;;8.73;7.80;;;;;;;;;;4938554;28;94679;-76
2022/03/13 01:29:48;;;;;;;9.77;7.97;;;;;;;;;;4940048;28;96302;-77
2022/03/13 01:32:17;;;;;;;9.38;7.75;;;;;;;;;;4939901;28;93411;-75
2022/03/13 01:34:45;;;;;;;8.77;7.85;;;;;;;;;;4939824;28;92335;-75
2022/03/13 01:37:13;;;;;;;8.70;7.80;;;;;;;;;;4942864;28;93324;-76
2022/03/13 01:39:40;;;;;;;9.23;8.25;;;;;;;;;;4939854;28;92760;-75
2022/03/13 01:42:07;;;;;;;10.80;7.55;;;;;;;;;;4939802;28;93388;-75
2022/03/13 01:44:33;;;;;;;10.05;7.57;;;;;;;;;;4939784;28;92961;-75
2022/03/13 01:47:03;;;;;;;8.05;7.15;;;;;;;;;;4939874;28;92228;-77
2022/03/13 01:49:31;;;;;;;11.68;7.80;;;;;;;;;;4939333;28;92617;-75
2022/03/13 01:51:57;;;;;;;11.02;7.30;;;;;;;;;;4937928;28;96489;-76
2022/03/13 01:54:24;;;;;;;15.27;7.43;;;;;;;;;;4939391;28;92561;-75
2022/03/13 01:56:50;;;;;;;10.75;7.90;;;;;;;;;;4939678;28;93803;-75
2022/03/13 01:59:17;;;;;;;8.23;7.38;;;;;;;;;;4942498;28;93831;-74
2022/03/13 02:01:44;;;;;;;8.68;7.78;;;;;;;;;;4939577;28;93450;-75
2022/03/13 02:04:13;;;;;;;9.13;7.72;;;;;;;;;;4938842;28;93109;-75
2022/03/13 02:06:41;;;;;;;8.38;7.45;;;;;;;;;;4939448;28;92360;-75
2022/03/13 02:09:07;;;;;;;8.70;7.80;;;;;;;;;;4940028;28;92862;-76
2022/03/13 02:11:38;;;;;;;9.00;7.90;;;;;;;;;;4939203;28;93591;-75
2022/03/13 02:14:05;;;;;;;8.90;8.00;;;;;;;;;;4939073;28;92373;-75
2022/03/13 02:16:32;;;;;;;8.60;7.88;;;;;;;;;;4937081;28;94762;-75
2022/03/13 02:18:59;;;;;;;8.32;7.63;;;;;;;;;;4939094;28;93532;-75
2022/03/13 02:21:27;;;;;;;8.90;8.00;;;;;;;;;;4941601;28;92423;-75
2022/03/13 02:23:59;;;;;;;9.05;8.15;;;;;;;;;;4939042;28;93749;-75
2022/03/13 02:26:25;;;;;;;;;;;;;;;;;;4938102;28;92201;-76
2022/03/13 02:28:53;;;;;;;9.00;7.80;;;;;;;;;;4938310;28;121602;-77
2022/03/13 02:31:26;;;;;;;8.40;7.57;;;;;;;;;;4938752;28;93567;-75
2022/03/13 02:33:53;;;;;;;8.48;7.68;;;;;;;;;;4938711;28;91716;-76
2022/03/13 02:36:32;;;;;;;8.18;7.22;;;;;;;;;;4939084;28;92416;-76
2022/03/13 02:38:59;;;;;;;9.70;8.10;;;;;;;;;;4939011;28;93518;-77
2022/03/13 02:41:26;;;;;;;8.57;7.75;;;;;;;;;;4940406;28;94681;-78
2022/03/13 02:43:53;;;;;;;8.43;7.63;;;;;;;;;;4941443;28;93416;-76
2022/03/13 02:46:21;;;;;;;8.80;7.90;;;;;;;;;;4940960;28;92257;-77
2022/03/13 02:48:48;;;;;;;9.18;8.07;;;;;;;;;;4936735;28;92693;-76
2022/03/13 02:51:15;;;;;;;8.68;7.82;;;;;;;;;;4938603;28;93729;-76
2022/03/13 02:53:41;;;;;;;10.90;8.10;;;;;;;;;;4937897;28;92423;-76
2022/03/13 02:56:08;;;;;;;9.80;8.70;;;;;;;;;;4938436;28;93327;-76
2022/03/13 02:58:34;;;;;;;9.70;8.70;;;;;;;;;;4939197;28;91992;-75
2022/03/13 03:01:00;;;;;;;10.27;8.65;;;;;;;;;;4938690;28;92390;-74
2022/03/13 03:03:27;;;;;;;9.80;8.80;;;;;;;;;;4941479;28;92990;-75
2022/03/13 03:05:54;;;;;;;10.40;8.98;;;;;;;;;;4937067;28;94539;-75
2022/03/13 03:08:21;;;;;;;12.05;9.35;;;;;;;;;;4938529;28;95714;-75
2022/03/13 03:10:48;;;;;;;10.98;9.45;;;;;;;;;;4936757;28;96349;-75
2022/03/13 03:13:16;;;;;;;11.52;10.27;;;;;;;;;;4938843;28;92241;-74
2022/03/13 03:15:42;;;;;;;11.73;10.05;;;;;;;;;;4937972;28;92974;-74
2022/03/13 03:18:12;;;;;;;11.98;10.23;;;;;;;;;;4937085;28;93530;-76
2022/03/13 03:20:39;;;;;;;12.30;10.05;;;;;;;;;;4937552;28;92287;-75
2022/03/13 03:23:05;;;;;;;12.10;10.05;;;;;;;;;;4938297;28;93398;-74
2022/03/13 03:25:31;;;;;;;12.88;10.93;;;;;;;;;;4940185;28;93503;-75
2022/03/13 03:27:58;;;;;;;12.30;11.00;;;;;;;;;;4937681;28;93547;-74
2022/03/13 03:30:26;;;;;;;13.07;11.10;;;;;;;;;;4935702;28;96297;-75
2022/03/13 03:32:53;;;;;;;12.25;10.82;;;;;;;;;;4936675;28;92389;-75
2022/03/13 03:35:21;;;;;;;13.07;11.38;;;;;;;;;;4937563;28;93487;-75
2022/03/13 03:37:49;;;;;;;14.38;11.10;;;;;;;;;;4937271;28;93789;-75
2022/03/13 03:40:16;;;;;;;15.98;11.82;;;;;;;;;;4937319;28;92316;-75
2022/03/13 03:42:42;;;;;;;12.90;11.52;;;;;;;;;;4937286;28;93479;-76
2022/03/13 03:45:09;;;;;;;14.07;11.38;;;;;;;;;;4937174;28;94114;-75
2022/03/13 03:47:35;;;;;;;14.10;11.98;;;;;;;;;;4940669;28;91532;-74
2022/03/13 03:50:02;;;;;;;13.70;11.85;;;;;;;;;;4937290;28;93814;-76
2022/03/13 03:52:29;;;;;;;13.50;11.98;;;;;;;;;;4936969;28;92322;-75
2022/03/13 03:54:55;;;;;;;14.13;12.45;;;;;;;;;;4935668;28;95700;-74
2022/03/13 03:57:21;;;;;;;14.10;12.00;;;;;;;;;;4937076;28;93663;-75
2022/03/13 03:59:48;;;;;;;16.73;12.18;;;;;;;;;;4937167;28;92341;-75
2022/03/13 04:02:14;;;;;;;16.50;12.13;;;;;;;;;;4937109;28;93407;-77
2022/03/13 04:04:41;;;;;;;15.32;12.48;;;;;;;;;;4935609;28;95063;-75
2022/03/13 04:07:07;;;;;;;16.08;13.10;;;;;;;;;;4936585;28;92347;-74
2022/03/13 04:09:33;;;;;;;17.27;13.45;;;;;;;;;;4940086;28;93491;-75
2022/03/13 04:12:00;;;;;;;20.40;13.82;;;;;;;;;;4937595;28;91667;-74
2022/03/13 04:14:26;;;;;;;20.70;15.20;;;;;;;;;;4937100;28;93393;-76
2022/03/13 04:16:53;;;;;;;19.25;14.63;;;;;;;;;;4936838;28;94441;-74
2022/03/13 04:19:20;;;;;;;20.33;15.75;;;;;;;;;;4935297;28;94712;-76
2022/03/13 04:21:46;;;;;;;23.90;15.80;;;;;;;;;;4936319;28;96331;-75
2022/03/13 04:24:12;;;;;;;21.63;15.27;;;;;;;;;;4935642;28;94612;-75
2022/03/13 04:26:40;;;;;;;19.15;15.65;;;;;;;;;;4936916;28;92194;-76
2022/03/13 04:29:09;;;;;;;19.20;15.93;;;;;;;;;;4937117;28;93511;-75
2022/03/13 04:31:38;;;;;;;21.13;15.75;;;;;;;;;;4943095;28;93739;-76
2022/03/13 04:34:04;;;;;;;23.55;16.27;;;;;;;;;;4939353;28;92931;-77
2022/03/13 04:36:32;;;;;;;20.40;16.02;;;;;;;;;;4940373;28;93925;-75
2022/03/13 04:39:03;;;;;;;22.77;16.45;;;;;;;;;;4940085;28;92216;-75
2022/03/13 04:41:29;;;;;;;22.02;16.90;;;;;;;;;;4940133;28;92906;-74
2022/03/13 04:43:56;;;;;;;23.77;17.70;;;;;;;;;;4938153;28;95610;-75
2022/03/13 04:46:22;;;;;;;21.52;17.50;;;;;;;;;;4939976;28;92707;-75
2022/03/13 04:48:49;;;;;;;23.58;17.52;;;;;;;;;;4939405;28;93522;-76
2022/03/13 04:51:15;;;;;;;22.48;17.70;;;;;;;;;;4942740;28;93552;-75
2022/03/13 04:53:42;;;;;;;21.98;16.63;;;;;;;;;;4940070;28;92664;-77
2022/03/13 04:56:08;;;;;;;25.10;17.10;;;;;;;;;;4939868;28;93849;-75
2022/03/13 04:58:35;;;;;;;26.52;17.70;;;;;;;;;;4938786;28;92317;-76
2022/03/13 05:01:01;;;;;;;26.83;17.63;;;;;;;;;;4940347;28;92675;-76
2022/03/13 05:03:27;;;;;;;28.17;20.05;;;;;;;;;;4939385;28;93454;-77
2022/03/13 05:05:54;;;;;;;25.42;18.08;;;;;;;;;;4939647;28;93741;-75
2022/03/13 05:08:21;;;;;;;24.05;18.40;;;;;;;;;;4938179;28;94639;-76
2022/03/13 05:10:47;;;;;;;22.92;18.38;;;;;;;;;;4939646;28;93180;-77
2022/03/13 05:13:15;;;;;;;26.02;18.13;;;;;;;;;;4942734;28;92250;-75
2022/03/13 05:15:42;;;;;;;27.20;18.77;;;;;;;;;;4939597;28;93185;-75
2022/03/13 05:18:09;;;;;;;23.48;17.42;;;;;;;;;;4937836;28;93130;-75
2022/03/13 05:20:36;;;;;;;26.58;18.50;;;;;;;;;;4938457;28;92937;-76
2022/03/13 05:23:03;;;;;;;28.13;19.02;;;;;;;;;;4939282;28;93535;-75
2022/03/13 05:25:31;;;;;;;26.45;18.27;;;;;;;;;;4939748;28;91649;-76
2022/03/13 05:27:58;;;;;;;25.35;18.40;;;;;;;;;;4939402;28;93082;-76
2022/03/13 05:30:24;;;;;;;24.20;18.83;;;;;;;;;;4939012;28;94044;-76
2022/03/13 05:32:51;;;;;;;23.80;18.67;;;;;;;;;;4937418;28;94789;-74
2022/03/13 05:35:17;;;;;;;27.73;18.38;;;;;;;;;;4940789;28;97371;-76
2022/03/13 05:37:44;;;;;;;23.70;18.48;;;;;;;;;;4938227;28;92369;-74
2022/03/13 05:40:14;;;;;;;24.52;19.10;;;;;;;;;;4938918;28;92257;-75
2022/03/13 05:42:45;;;;;;;26.08;19.35;;;;;;;;;;4939096;28;93046;-75
2022/03/13 05:45:14;;;;;;;27.17;18.73;;;;;;;;;;4938593;28;92253;-75
2022/03/13 05:47:47;;;;;;;26.65;19.75;;;;;;;;;;4938797;28;93591;-75
2022/03/13 05:50:14;;;;;;;31.67;18.40;;;;;;;;;;4939422;28;93091;-75
2022/03/13 05:52:41;;;;;;;28.58;19.27;;;;;;;;;;4939269;28;92247;-75
2022/03/13 05:55:08;;;;;;;28.45;19.58;;;;;;;;;;4938784;28;93555;-74
2022/03/13 05:57:35;;;;;;;28.08;21.02;;;;;;;;;;4939952;28;95604;-76
2022/03/13 06:00:05;;;;;;;28.88;21.15;;;;;;;;;;4938452;28;95847;-74
2022/03/13 06:02:40;;;;;;;28.85;20.67;;;;;;;;;;4936849;28;93351;-75
2022/03/13 06:05:08;;;;;;;24.48;20.15;;;;;;;;;;4938678;28;92191;-75
2022/03/13 06:07:37;;;;;;;28.50;20.55;;;;;;;;;;4938589;28;94052;-75
2022/03/13 06:10:04;;;;;;;28.45;21.55;;;;;;;;;;4938574;28;94197;-75
2022/03/13 06:12:32;;;;;;;26.52;20.73;;;;;;;;;;4938570;28;92417;-75
2022/03/13 06:15:00;;;;;;;28.92;20.27;;;;;;;;;;4938907;28;93323;-76
2022/03/13 06:17:26;;;;;;;30.65;21.02;;;;;;;;;;4937251;28;96324;-75
2022/03/13 06:19:55;;;;;;;27.90;21.20;;;;;;;;;;4941722;28;92331;-75
2022/03/13 06:22:25;;;;;;;;;;;;;;;;;;4936712;28;96693;-76
2022/03/13 06:24:52;;;;;;;28.10;20.35;;;;;;;;;;4938765;28;93055;-76
2022/03/13 06:27:19;;;;;;;26.98;19.92;;;;;;;;;;4938306;28;93486;-74
2022/03/13 06:29:45;;;;;;;26.63;19.55;;;;;;;;;;4937779;28;95139;-75
2022/03/13 06:32:11;;;;;;;24.85;19.90;;;;;;;;;;4938158;28;92255;-75
2022/03/13 06:34:38;;;;;;;26.60;19.70;;;;;;;;;;4938189;28;94173;-75
2022/03/13 06:37:04;;;;;;;23.58;18.55;;;;;;;;;;4937137;28;93902;-76
2022/03/13 06:39:31;;;;;;;24.42;18.90;;;;;;;;;;4938488;28;93554;-75
2022/03/13 06:41:57;;;;;;;24.40;18.83;;;;;;;;;;4941014;28;92272;-75
2022/03/13 06:44:24;;;;;;;25.08;19.38;;;;;;;;;;4938037;28;92273;-76
2022/03/13 06:46:50;;;;;;;25.20;19.10;;;;;;;;;;4936251;28;95674;-75
2022/03/13 06:49:17;;;;;;;30.85;19.77;;;;;;;;;;4937637;28;94145;-75
2022/03/13 06:51:43;;;;;;;25.05;19.60;;;;;;;;;;4937347;28;92439;-75
2022/03/13 06:54:10;;;;;;;27.77;19.15;;;;;;;;;;4937038;28;94033;-75
2022/03/13 06:56:38;;;;;;;24.55;19.30;;;;;;;;;;4937619;28;93585;-76
2022/03/13 06:59:05;;;;;;;25.20;18.40;;;;;;;;;;4937847;28;92242;-76
2022/03/13 07:01:31;;;;;;;21.67;18.00;;;;;;;;;;4940870;28;92510;-75
2022/03/13 07:03:58;;;;;;;23.48;18.30;;;;;;;;;;4938227;28;91461;-75
2022/03/13 07:06:24;;;;;;;22.75;18.42;;;;;;;;;;4937550;28;92737;-76
2022/03/13 07:08:51;;;;;;;24.75;18.42;;;;;;;;;;4937860;28;93065;-75
2022/03/13 07:11:17;;;;;;;22.40;17.60;;;;;;;;;;4936216;28;94716;-75
2022/03/13 07:13:45;;;;;;;25.38;17.73;;;;;;;;;;4937723;28;95142;-77
2022/03/13 07:16:14;;;;;;;22.60;17.08;;;;;;;;;;4937616;28;93525;-75
2022/03/13 07:18:42;;;;;;;22.60;17.88;;;;;;;;;;4937628;28;92341;-76
2022/03/13 07:21:09;;;;;;;25.27;17.27;;;;;;;;;;4937064;28;93491;-75
2022/03/13 07:23:36;;;;;;;20.88;16.45;;;;;;;;;;4940656;28;94208;-75
2022/03/13 07:26:03;;;;;;;20.88;16.02;;;;;;;;;;4937551;28;93405;-76
2022/03/13 07:28:29;;;;;;;24.38;16.80;;;;;;;;;;4938154;28;92784;-76
2022/03/13 07:30:56;;;;;;;26.98;17.38;;;;;;;;;;4937498;28;92203;-75
2022/03/13 07:33:23;;;;;;;22.48;17.13;;;;;;;;;;4937582;28;93245;-77
2022/03/13 07:35:55;;;;;;;28.60;17.60;;;;;;;;;;4935392;28;95105;-78
2022/03/13 07:38:21;;;;;;;23.90;16.73;;;;;;;;;;4937402;28;92289;-76
2022/03/13 07:40:48;;;;;;;24.25;16.67;;;;;;;;;;4937397;28;93582;-75
2022/03/13 07:43:14;;;;;;;23.48;15.75;;;;;;;;;;4937187;28;93739;-76
2022/03/13 07:45:41;;;;;;;28.13;17.33;;;;;;;;;;4938822;28;92330;-73
2022/03/13 07:48:07;;;;;;;23.65;16.65;;;;;;;;;;4936967;28;93326;-74
2022/03/13 07:50:33;;;;;;;23.92;16.58;;;;;;;;;;4937003;28;92441;-75
2022/03/13 07:53:00;;;;;;;26.45;17.40;;;;;;;;;;4937418;28;93736;-75
2022/03/13 07:55:27;;;;;;;24.10;17.45;;;;;;;;;;4937005;28;93462;-75
2022/03/13 07:57:53;;;;;;;24.98;18.10;;;;;;;;;;4937308;28;92301;-77
2022/03/13 08:00:22;;;;;;;21.67;16.38;;;;;;;;;;4935586;28;94685;-74
2022/03/13 08:02:49;;;;;;;24.23;16.70;;;;;;;;;;4936731;28;93996;-75
2022/03/13 08:05:16;;;;;;;21.50;16.52;;;;;;;;;;4940365;28;92906;-75
2022/03/13 08:07:43;;;;;;;22.52;17.23;;;;;;;;;;4943245;28;93740;-75
2022/03/13 08:10:10;;;;;;;20.70;16.60;;;;;;;;;;4940329;28;92767;-75
2022/03/13 08:12:38;;;;;;;24.50;17.75;;;;;;;;;;4940405;28;93730;-75
2022/03/13 08:15:08;;;;;;;20.52;16.38;;;;;;;;;;4940389;28;93155;-75
2022/03/13 08:17:35;;;;;;;24.25;18.02;;;;;;;;;;4940810;28;91520;-75
2022/03/13 08:20:04;;;;;;;22.77;16.73;;;;;;;;;;4940330;28;92598;-74
2022/03/13 08:22:31;;;;;;;20.75;16.55;;;;;;;;;;4940355;28;93173;-75
2022/03/13 08:24:57;;;;;;;34.42;17.27;;;;;;;;;;4938715;28;94769;-75
2022/03/13 08:27:24;;;;;;;28.58;17.45;;;;;;;;;;4940077;28;96100;-74
2022/03/13 08:29:50;;;;;;;23.98;17.27;;;;;;;;;;4941965;28;94538;-74
2022/03/13 08:32:17;;;;;;;22.92;16.40;;;;;;;;;;4940116;28;93137;-75
2022/03/13 08:34:45;;;;;;;23.30;17.40;;;;;;;;;;4939458;28;93794;-74
2022/03/13 08:37:12;;;;;;;20.25;16.30;;;;;;;;;;4940065;28;92318;-77
2022/03/13 08:39:38;;;;;;;19.33;15.52;;;;;;;;;;4938715;28;94844;-77
2022/03/13 08:42:05;;;;;;;24.08;17.35;;;;;;;;;;4940422;28;92949;-75
2022/03/13 08:44:32;;;;;;;20.80;16.17;;;;;;;;;;4939947;28;92339;-75
2022/03/13 08:46:58;;;;;;;23.95;16.98;;;;;;;;;;4939873;28;93804;-75
2022/03/13 08:49:25;;;;;;;22.63;16.95;;;;;;;;;;4937463;28;96190;-75
2022/03/13 08:51:51;;;;;;;21.85;16.08;;;;;;;;;;4942901;28;92142;-75
2022/03/13 08:54:20;;;;;;;21.80;16.02;;;;;;;;;;4939858;28;92215;-75
2022/03/13 08:56:48;;;;;;;19.80;16.35;;;;;;;;;;4939749;28;92402;-75
2022/03/13 08:59:15;;;;;;;27.10;16.40;;;;;;;;;;4939665;28;92734;-75
2022/03/13 09:01:43;;;;;;;21.48;16.08;;;;;;;;;;4937872;28;94583;-75
2022/03/13 09:04:10;;;;;;;21.92;15.98;;;;;;;;;;4939700;28;92313;-75
2022/03/13 09:06:39;;;;;;;19.48;15.15;;;;;;;;;;4939016;28;93493;-74
2022/03/13 09:09:08;;;;;;;20.77;15.48;;;;;;;;;;4938228;28;95172;-74
2022/03/13 09:11:35;;;;;;;21.20;15.55;;;;;;;;;;4942776;28;93399;-74
2022/03/13 09:14:01;;;;;;;24.90;16.23;;;;;;;;;;4937426;28;96026;-75
2022/03/13 09:16:28;;;;;;;25.27;17.10;;;;;;;;;;4937482;28;92602;-74
2022/03/13 09:18:55;;;;;;;24.83;16.13;;;;;;;;;;4939530;28;93816;-73
2022/03/13 09:21:22;;;;;;;18.77;15.40;;;;;;;;;;4939415;28;93881;-74
2022/03/13 09:23:49;;;;;;;23.30;15.48;;;;;;;;;;4939243;28;92322;-75
2022/03/13 09:26:15;;;;;;;21.50;15.68;;;;;;;;;;4939394;28;93758;-74
2022/03/13 09:28:44;;;;;;;20.95;15.88;;;;;;;;;;4938805;28;93408;-74
2022/03/13 09:31:10;;;;;;;21.70;14.50;;;;;;;;;;4938478;28;91824;-76
2022/03/13 09:33:37;;;;;;;29.20;16.05;;;;;;;;;;4941491;28;92801;-75
2022/03/13 09:36:03;;;;;;;23.63;16.15;;;;;;;;;;4939063;28;92200;-74
2022/03/13 09:38:29;;;;;;;23.65;16.30;;;;;;;;;;4937275;28;94918;-75
2022/03/13 09:40:56;;;;;;;23.25;15.15;;;;;;;;;;4938049;28;93803;-75
2022/03/13 09:43:22;;;;;;;19.05;14.90;;;;;;;;;;4941372;28;92457;-75
2022/03/13 09:45:49;;;;;;;23.63;16.02;;;;;;;;;;4938364;28;92903;-74
2022/03/13 09:48:18;;;;;;;22.52;15.65;;;;;;;;;;4938009;28;93778;-75
2022/03/13 09:50:45;;;;;;;21.80;15.35;;;;;;;;;;4938455;28;92380;-75
2022/03/13 09:53:12;;;;;;;19.33;15.63;;;;;;;;;;4941417;28;92953;-76
2022/03/13 09:55:38;;;;;;;21.05;14.95;;;;;;;;;;4937365;28;93290;-76
2022/03/13 09:58:06;;;;;;;20.70;16.05;;;;;;;;;;4938554;28;92782;-75
2022/03/13 10:00:32;;;;;;;23.33;16.48;;;;;;;;;;4938215;28;93783;-76
2022/03/13 10:02:59;;;;;;;23.08;17.15;;;;;;;;;;4936403;28;96181;-75
2022/03/13 10:05:27;;;;;;;25.80;17.10;;;;;;;;;;4937828;28;96996;-73
2022/03/13 10:08:00;;;;;;;22.60;16.55;;;;;;;;;;4937778;28;93636;-74
2022/03/13 10:10:31;;;;;;;21.77;16.45;;;;;;;;;;4935244;28;92496;-74
2022/03/13 10:13:00;;;;;;;21.50;16.60;;;;;;;;;;4942033;28;93378;-73
2022/03/13 10:15:28;;;;;;;24.00;17.15;;;;;;;;;;4937925;28;93767;-74
2022/03/13 10:17:54;;;;;;;23.45;16.95;;;;;;;;;;4941091;28;92527;-73
2022/03/13 10:20:23;;;;;;;18.98;16.05;;;;;;;;;;4938501;28;93073;-74
2022/03/13 10:22:57;;;;;;;21.70;16.90;;;;;;;;;;4937693;28;92817;-73
2022/03/13 10:25:27;;;;;;;23.20;17.02;;;;;;;;;;4937803;28;93463;-74
2022/03/13 10:27:55;;;;;;;17.98;15.88;;;;;;;;;;4934776;28;95411;-74
2022/03/13 10:30:21;;;;;;;21.25;16.05;;;;;;;;;;4937962;28;92299;-73
2022/03/13 10:32:54;;;;;;;21.83;17.42;;;;;;;;;;4938244;28;93544;-75
2022/03/13 10:35:20;;;;;;;20.48;16.33;;;;;;;;;;4937302;28;93737;-74
2022/03/13 10:37:50;;;;;;;23.58;16.17;;;;;;;;;;4933883;28;92452;-73
2022/03/13 10:40:19;;;;;;;20.67;15.82;;;;;;;;;;4940729;28;93210;-75
2022/03/13 10:42:48;;;;;;;18.70;16.42;;;;;;;;;;4938557;28;92498;-76
2022/03/13 10:45:36;;;;;;;19.85;15.77;;;;;;;;;;4938010;28;93416;-74
2022/03/13 10:48:21;;;;;;;22.02;17.05;;;;;;;;;;4936849;28;93470;-74
2022/03/13 10:50:51;;;;;;;19.50;15.50;;;;;;;;;;4937546;28;92453;-74
2022/03/13 10:53:20;;;;;;;17.05;15.23;;;;;;;;;;4937526;28;94824;-74
2022/03/13 10:55:59;;;;;;;19.42;16.42;;;;;;;;;;4937389;28;93639;-73
2022/03/13 10:58:44;;;;;;;19.67;16.30;;;;;;;;;;4936284;28;92452;-76
2022/03/13 11:01:16;;;;;;;24.45;17.08;;;;;;;;;;4939181;28;96450;-73
2022/03/13 11:03:51;;;;;;;19.85;16.30;;;;;;;;;;4938869;28;92358;-74
2022/03/13 11:06:19;;;;;;;22.27;15.82;;;;;;;;;;4937412;28;92972;-74
2022/03/13 11:08:46;;;;;;;19.83;15.50;;;;;;;;;;4936382;28;93612;-74
2022/03/13 11:11:16;;;;;;;24.65;15.98;;;;;;;;;;4937674;28;91710;-75
2022/03/13 11:13:43;;;;;;;20.50;15.57;;;;;;;;;;4939471;28;92749;-74
2022/03/13 11:16:10;;;;;;;19.02;16.38;;;;;;;;;;4937042;28;93421;-74
2022/03/13 11:18:38;;;;;;;19.42;15.40;;;;;;;;;;4935703;28;95316;-74
2022/03/13 11:21:08;;;;;;;19.05;14.82;;;;;;;;;;4932763;28;97002;-75
2022/03/13 11:23:36;;;;;;;17.75;15.05;;;;;;;;;;4943850;28;93288;-75
2022/03/13 11:26:04;;;;;;;17.88;14.77;;;;;;;;;;4936893;28;93732;-73
2022/03/13 11:28:31;;;;;;;18.60;16.20;;;;;;;;;;4936970;28;92210;-74
2022/03/13 11:30:58;;;;;;;16.40;14.68;;;;;;;;;;4936561;28;92724;-75
2022/03/13 11:33:32;;;;;;;18.35;14.50;;;;;;;;;;4940037;28;93643;-74
2022/03/13 11:36:18;;;;;;;21.92;15.63;;;;;;;;;;4936900;28;93033;-74
2022/03/13 11:38:56;;;;;;;17.85;15.52;;;;;;;;;;4932332;28;92271;-77
2022/03/13 11:41:35;;;;;;;20.58;15.52;;;;;;;;;;4933777;28;93584;-74
2022/03/13 11:44:02;;;;;;;20.13;13.48;;;;;;;;;;4937170;28;95513;-75
2022/03/13 11:46:46;;;;;;;18.45;15.85;;;;;;;;;;4939861;28;92657;-75
2022/03/13 11:49:17;;;;;;;17.05;15.23;;;;;;;;;;4931656;28;93675;-74
2022/03/13 11:51:46;;;;;;;18.40;15.02;;;;;;;;;;4936804;28;92297;-73
2022/03/13 11:54:35;;;;;;;19.48;14.82;;;;;;;;;;4936456;28;92535;-80
2022/03/13 11:57:14;;;;;;;16.92;14.73;;;;;;;;;;4936198;28;92335;-74
2022/03/13 12:00:19;;;;;;;16.42;14.38;;;;;;;;;;4934046;28;92167;-75
2022/03/13 12:02:46;;;;;;;19.58;15.52;;;;;;;;;;4937321;28;92779;-75
2022/03/13 12:05:26;;;;;;;19.83;15.88;;;;;;;;;;4936025;28;94913;-74
2022/03/13 12:07:53;;;;;;;18.10;14.35;;;;;;;;;;4932737;28;92311;-74
2022/03/13 12:10:45;;;;;;;25.58;14.80;;;;;;;;;;4934871;28;94795;-74
2022/03/13 12:13:14;;;;;;;16.05;14.15;;;;;;;;;;4936355;28;92396;-74
2022/03/13 12:15:44;;;;;;;20.47;14.30;;;;;;;;;;4936585;28;92622;-75
2022/03/13 12:18:18;;;;;;;16.50;14.48;;;;;;;;;;4935902;28;94154;-74
2022/03/13 12:20:48;;;;;;;16.63;14.07;;;;;;;;;;4936228;28;92377;-74
2022/03/13 12:23:26;;;;;;;18.13;14.55;;;;;;;;;;4937424;28;92840;-75
2022/03/13 12:26:14;;;;;;;17.48;14.05;;;;;;;;;;4931668;28;93860;-73
2022/03/13 12:28:40;;;;;;;18.83;13.95;;;;;;;;;;4936138;28;91957;-74
2022/03/13 12:31:06;;;;;;;16.92;13.40;;;;;;;;;;4936042;28;92323;-75
2022/03/13 12:33:35;;;;;;;17.25;13.88;;;;;;;;;;4940669;28;93088;-76
2022/03/13 12:36:02;;;;;;;19.15;13.40;;;;;;;;;;4934609;28;94712;-75
2022/03/13 12:38:34;;;;;;;17.13;13.82;;;;;;;;;;4932290;28;94068;-73
2022/03/13 12:41:06;;;;;;;18.35;15.13;;;;;;;;;;4968031;28;92251;-71
2022/03/13 12:43:49;;;;;;;16.67;13.63;;;;;;;;;;4936682;28;92631;-74
2022/03/13 12:46:18;;;;;;;16.25;13.10;;;;;;;;;;4936292;28;92947;-73
2022/03/13 12:48:49;;;;;;;17.13;13.27;;;;;;;;;;4935761;28;92419;-73
2022/03/13 12:51:35;;;;;;;15.27;12.90;;;;;;;;;;4937496;28;93427;-73
2022/03/13 12:54:02;;;;;;;17.13;12.80;;;;;;;;;;4940288;28;92879;-72
2022/03/13 12:56:30;;;;;;;19.30;13.40;;;;;;;;;;4942750;28;92371;-74
2022/03/13 12:58:57;;;;;;;16.90;13.23;;;;;;;;;;4922282;28;95159;-74
2022/03/13 13:01:24;;;;;;;17.23;12.82;;;;;;;;;;4937612;28;96313;-73
2022/03/13 13:03:52;;;;;;;16.00;13.35;;;;;;;;;;4939579;28;95789;-74
2022/03/13 13:06:31;;;;;;;17.77;14.25;;;;;;;;;;4939770;28;93705;-73
2022/03/13 13:08:58;;;;;;;15.63;13.23;;;;;;;;;;4939507;28;92381;-73
2022/03/13 13:11:47;;;;;;;15.60;13.10;;;;;;;;;;4938652;28;92948;-73
2022/03/13 13:14:14;;;;;;;14.75;12.77;;;;;;;;;;4939423;28;93381;-73
2022/03/13 13:16:44;;;;;;;15.43;12.85;;;;;;;;;;4942525;28;92272;-73
2022/03/13 13:19:11;;;;;;;15.68;13.75;;;;;;;;;;4940161;28;92440;-75
2022/03/13 13:21:39;;;;;;;14.27;12.77;;;;;;;;;;4938218;28;92229;-73
2022/03/13 13:24:18;;;;;;;19.30;13.75;;;;;;;;;;4939503;28;94588;-75
2022/03/13 13:26:44;;;;;;;14.23;12.57;;;;;;;;;;4935988;28;99076;-73
2022/03/13 13:29:31;;;;;;;13.75;12.10;;;;;;;;;;4939370;28;92401;-74
2022/03/13 13:32:17;;;;;;;12.50;11.20;;;;;;;;;;4939059;28;93548;-73
2022/03/13 13:35:02;;;;;;;12.07;10.88;;;;;;;;;;4936764;28;94057;-71
2022/03/13 13:37:28;;;;;;;11.70;10.52;;;;;;;;;;4935811;28;92347;-70
2022/03/13 13:40:05;;;;;;;11.80;10.60;;;;;;;;;;4940578;28;93196;-70
2022/03/13 13:42:32;;;;;;;13.27;10.00;;;;;;;;;;4937611;28;92374;-71
2022/03/13 13:45:17;;;;;;;10.88;9.85;;;;;;;;;;4940979;28;92543;-75
2022/03/13 13:47:43;;;;;;;11.10;9.80;;;;;;;;;;4938764;28;93568;-74
2022/03/13 13:50:14;;;;;;;10.48;9.38;;;;;;;;;;4938860;28;92258;-74
2022/03/13 13:52:41;;;;;;;9.80;8.90;;;;;;;;;;4937318;28;94782;-73
2022/03/13 13:55:18;;;;;;;12.18;10.98;;;;;;;;;;4938191;28;92944;-74
2022/03/13 13:57:44;;;;;;;12.82;10.80;;;;;;;;;;4934937;28;93341;-75
2022/03/13 14:00:26;;;;;;;15.35;11.60;;;;;;;;;;4936195;28;94873;-71
2022/03/13 14:02:52;;;;;;;12.70;11.40;;;;;;;;;;4940537;28;94703;-73
2022/03/13 14:05:21;;;;;;;12.35;11.05;;;;;;;;;;4937245;28;93730;-74
2022/03/13 14:08:08;;;;;;;14.77;12.20;;;;;;;;;;4935049;28;93811;-75
2022/03/13 14:10:35;;;;;;;16.30;12.57;;;;;;;;;;4938523;28;92513;-74
2022/03/13 14:13:01;;;;;;;17.42;12.55;;;;;;;;;;4938013;28;92921;-74
2022/03/13 14:15:29;;;;;;;15.35;12.90;;;;;;;;;;4935548;28;96288;-74
2022/03/13 14:17:56;;;;;;;12.80;11.45;;;;;;;;;;4931286;28;94900;-74
2022/03/13 14:20:23;;;;;;;13.93;12.50;;;;;;;;;;4937537;28;95659;-74
2022/03/13 14:22:49;;;;;;;17.30;14.02;;;;;;;;;;4935984;28;95005;-73
2022/03/13 14:25:16;;;;;;;15.82;13.90;;;;;;;;;;4939595;28;92331;-74
2022/03/13 14:27:42;;;;;;;15.70;14.05;;;;;;;;;;4937532;28;93705;-73
2022/03/13 14:30:09;;;;;;;16.63;13.45;;;;;;;;;;4937754;28;92291;-75